Terminal Aerodrome Forecast
Issued by NWS

Home | Current Version | Previous Version | Text Only | Print | Product List | Glossary On
Versions: 1 2 3 4 5 6 7 8 9 10 11 12 13 14 15 16 17 18 19 20 21 22 23 24 25 26 27 28 29 30
268
FTUS43 KIND 190705 AAA
TAFBMG
TAF AMD
KBMG 190705Z 1907/2006 VRB03KT 3SM BR SCT008 BKN250
     FM190900 VRB03KT 5SM BR BKN250
     FM191300 12005KT 6SM BR OVC080
     FM191800 12007KT P6SM OVC060
     FM192000 11008KT 2SM -RA OVC025
     FM192200 11008KT 1 1/2SM -RA OVC008
     FM200000 12008KT 1SM RA OVC003
     FM200500 15006KT 1SM RA OVC003
      AMD LTD TO CLD VIS AND WIND TIL 191400=

USA.gov is the U.S. government's official web portal to all federal, state and local government web resources and services.